Duck Valley, Nevada
Current Conditions -  °F | °C
As of 11:58 AM on Thursday 29 Jan 2015 (Local Time) from KMUO Reporting Station
Scattered Clouds Scattered Clouds  
Wind Chill:   Ceiling: Unl
Heat Index:   Visibility: 10mi
Dew Point:   Wind: 7mph
Humidity: 76%   Direction: 140°SE
Pressure: 30.39"   Gusts: NA
Location:  41.9458°N, 116.094°W
Report Text: KMUO 291958Z 14006KT 10SM SCT029 SCT060 06/02 A3039 RMK AO2A SLP309
Loading
Personal Weather Stations






























Interactive Weather Map New forecast layout! Learn more

10-Day Weather Forecast

Advertisements
Track Severe Weather on mobile